This is the latest recevied weather packets stored in our database for station/object N0AOL-13. If no packets are shown the sender has not sent any weather packets the latest 10 day(s).
| Time | Temp. | Humidity | Pressure | Rain* | Wind** | Luminosity | Snow |
|---|---|---|---|---|---|---|---|
| 1777452325 | -0.56° C | 93% | 1018.8 hPa | 0 mm | - | 0 W/m² | - |
| 1777450524 | -0.56° C | 93% | 1019.1 hPa | 0 mm | - | 0 W/m² | - |
| 1777439725 | 0.56° C | 92% | 1019.3 hPa | 0 mm | - | 0 W/m² | - |
| 1777437936 | 1.11° C | 92% | 1019.4 hPa | 0 mm | - | 0 W/m² | - |
| 1777434333 | 1.67° C | 92% | 1019.5 hPa | 0 mm | - | 0 W/m² | - |
| 1777428921 | 3.33° C | 92% | 1019.1 hPa | 0 mm | - | 0 W/m² | - |
| 1777427125 | 3.33° C | 89% | 1018.6 hPa | 0 mm | - | 5 W/m² | - |
| 1777417223 | 6.67° C | 80% | 1017.4 hPa | 1.78 mm | - | 487 W/m² | - |
| 1777387504 | 0.56° C | 91% | 1018.1 hPa | 0.76 mm | - | 93 W/m² | - |
| 1777384806 | 0.56° C | 91% | 1017.8 hPa | 0.76 mm | - | 74 W/m² | - |
| 1777366832 | 1.67° C | 84% | 1016.5 hPa | 0 mm | - | 0 W/m² | - |
| 1777356008 | 1.67° C | 84% | 1017.8 hPa | 0 mm | - | 0 W/m² | - |
| 1777351505 | 1.67° C | 84% | 1017.9 hPa | 0 mm | - | 0 W/m² | - |
| 1777345210 | 1.67° C | 81% | 1017.5 hPa | 0 mm | - | 0 W/m² | - |
| 1777331725 | 3.89° C | 75% | 1015.6 hPa | 0 mm | - | 46 W/m² | - |
| 1777328135 | 4.44° C | 74% | 1015.1 hPa | 0 mm | - | 137 W/m² | - |
| 1777327226 | 4.44° C | 73% | 1014.8 hPa | 0 mm | - | 102 W/m² | - |
| 1777303811 | 1.67° C | 88% | 1013.6 hPa | 1.27 mm | - | 125 W/m² | - |
| 1777302909 | 1.67° C | 89% | 1013.4 hPa | 1.02 mm | - | 105 W/m² | - |
| 1777300210 | 1.11° C | 91% | 1013.1 hPa | 0 mm | - | 53 W/m² | - |
| 1777295721 | 0.56° C | 91% | 1012.1 hPa | 0 mm | - | 11 W/m² | - |
| 1777294833 | 0.56° C | 91% | 1011.8 hPa | 0 mm | - | 12 W/m² | - |
| 1777293010 | 0.56° C | 91% | 1011.3 hPa | 0 mm | - | 9 W/m² | - |
| 1777289410 | 0° C | 92% | 1010.1 hPa | 0 mm | - | 0 W/m² | - |
| 1777288512 | 0° C | 93% | 1009.9 hPa | 0 mm | - | 0 W/m² | - |
* Rain latest hour (hover to see other rain measurements)
** Current wind speed in m/s (hover to see current wind gust speed)